createdAt,value
2022-12-16T00:01:22.796Z,9.23
2022-12-16T00:06:26.294Z,9.32
2022-12-16T00:11:27.819Z,9.55
2022-12-16T00:16:29.064Z,11.12
2022-12-16T00:21:30.031Z,9.48
2022-12-16T00:26:31.015Z,8.50
2022-12-16T00:31:32.287Z,9.00
2022-12-16T00:36:33.729Z,8.95
2022-12-16T00:41:34.576Z,6.97
2022-12-16T00:46:35.464Z,7.75
2022-12-16T00:51:36.194Z,5.60
2022-12-16T00:56:36.990Z,4.37
2022-12-16T01:01:37.911Z,4.43
2022-12-16T01:06:39.456Z,6.97
2022-12-16T01:11:40.163Z,6.32
2022-12-16T01:16:41.091Z,7.55
2022-12-16T01:21:41.960Z,6.70
2022-12-16T01:26:42.757Z,5.18
2022-12-16T01:31:43.758Z,5.57
2022-12-16T01:36:44.981Z,5.87
2022-12-16T01:41:45.749Z,9.57
2022-12-16T01:46:53.152Z,7.10
2022-12-16T01:52:01.629Z,7.78
2022-12-16T01:57:07.945Z,5.87
2022-12-16T02:02:10.113Z,5.60
2022-12-16T02:07:11.042Z,3.35
2022-12-16T02:12:26.719Z,3.15
2022-12-16T02:17:37.685Z,3.70
2022-12-16T02:23:26.626Z,4.18
2022-12-16T02:29:04.976Z,4.55
2022-12-16T02:34:23.731Z,4.37
2022-12-16T02:39:41.023Z,5.45
2022-12-16T02:51:32.764Z,5.65
2022-12-16T02:56:49.718Z,6.05
2022-12-16T03:02:04.606Z,5.80
2022-12-16T03:07:12.578Z,5.80
2022-12-16T03:12:17.308Z,5.40
2022-12-16T03:17:21.240Z,5.65
2022-12-16T03:22:27.111Z,5.57
2022-12-16T03:28:15.950Z,5.55
2022-12-16T03:33:29.736Z,5.45
2022-12-16T03:38:33.013Z,5.32
2022-12-16T03:43:34.400Z,5.50
2022-12-16T03:48:35.986Z,4.90
2022-12-16T03:53:36.704Z,5.70
2022-12-16T03:58:41.759Z,5.47
2022-12-16T04:03:42.540Z,4.57
2022-12-16T04:08:47.531Z,4.47
2022-12-16T04:14:06.935Z,4.25
2022-12-16T04:19:37.624Z,4.53
2022-12-16T04:24:38.567Z,3.62
2022-12-16T04:30:18.244Z,3.75
2022-12-16T04:35:37.953Z,3.87
2022-12-16T04:40:57.295Z,3.30
2022-12-16T04:46:16.859Z,3.00
2022-12-16T04:51:36.386Z,3.12
2022-12-16T04:56:55.859Z,3.47
2022-12-16T05:02:15.620Z,3.10
2022-12-16T05:07:38.462Z,4.10
2022-12-16T05:12:58.079Z,2.97
2022-12-16T05:18:17.479Z,3.45
2022-12-16T05:23:37.195Z,2.87
2022-12-16T05:28:56.640Z,3.03
2022-12-16T05:34:16.258Z,3.05
2022-12-16T05:39:35.709Z,3.22
2022-12-16T05:44:55.288Z,3.62
2022-12-16T05:50:14.813Z,3.37
2022-12-16T05:55:35.899Z,3.55
2022-12-16T06:00:55.507Z,4.87
2022-12-16T06:06:15.428Z,5.47
2022-12-16T06:11:34.883Z,4.55
2022-12-16T06:16:54.390Z,3.15
2022-12-16T06:22:13.753Z,2.70
2022-12-16T06:27:33.175Z,2.25
2022-12-16T06:32:52.644Z,3.22
2022-12-16T06:38:12.317Z,3.00
2022-12-16T06:43:32.344Z,2.35
2022-12-16T06:48:52.447Z,3.15
2022-12-16T06:54:12.197Z,2.97
2022-12-16T06:59:31.972Z,2.30
2022-12-16T07:04:51.474Z,3.00
2022-12-16T07:10:10.858Z,3.12
2022-12-16T07:15:30.536Z,3.35
2022-12-16T07:20:49.978Z,3.47
2022-12-16T07:26:10.556Z,3.25
2022-12-16T07:31:29.986Z,3.15
2022-12-16T07:36:49.405Z,2.60
2022-12-16T07:42:08.748Z,2.70
2022-12-16T07:47:28.146Z,3.00
2022-12-16T07:52:47.678Z,2.67
2022-12-16T07:58:09.119Z,2.97
2022-12-16T08:03:28.609Z,2.53
2022-12-16T08:08:47.820Z,2.75
2022-12-16T08:14:07.517Z,2.35
2022-12-16T08:19:27.513Z,2.30
2022-12-16T08:24:53.297Z,2.70
2022-12-16T08:30:13.242Z,2.90
2022-12-16T08:35:32.639Z,2.87
2022-12-16T08:40:52.091Z,2.85
2022-12-16T08:46:15.299Z,4.00
2022-12-16T08:51:35.115Z,5.93
2022-12-16T08:56:54.556Z,3.47
2022-12-16T09:02:15.326Z,2.87
2022-12-16T09:07:35.659Z,3.60
2022-12-16T09:12:55.117Z,2.78
2022-12-16T09:18:15.215Z,2.92
2022-12-16T09:23:34.989Z,2.72
2022-12-16T09:28:54.991Z,2.30
2022-12-16T09:34:14.641Z,3.37
2022-12-16T09:39:34.137Z,2.80
2022-12-16T09:45:28.911Z,2.53
2022-12-16T09:50:50.005Z,3.17
2022-12-16T09:56:10.528Z,2.85
2022-12-16T10:01:31.067Z,2.55
2022-12-16T10:06:59.959Z,2.83
2022-12-16T10:14:00.882Z,2.00
2022-12-16T10:21:24.722Z,1.77
2022-12-16T10:27:08.376Z,2.13
2022-12-16T10:32:56.307Z,1.67
2022-12-16T10:38:16.509Z,2.35
2022-12-16T10:45:19.823Z,1.92
2022-12-16T10:50:39.674Z,1.67
2022-12-16T10:59:13.961Z,2.35
2022-12-16T11:08:11.311Z,1.75
2022-12-16T11:13:53.261Z,1.95
2022-12-16T11:19:12.742Z,3.37
2022-12-16T11:24:38.143Z,2.72
2022-12-16T11:30:50.215Z,2.60
2022-12-16T11:36:12.659Z,2.90
2022-12-16T11:41:50.303Z,2.58
2022-12-16T11:47:10.434Z,3.08
2022-12-16T11:52:37.784Z,3.25
2022-12-16T11:58:11.140Z,3.42
2022-12-16T12:03:40.905Z,2.65
2022-12-16T12:10:07.033Z,3.35
2022-12-16T12:16:26.776Z,3.37
2022-12-16T12:22:10.162Z,3.95
2022-12-16T12:29:11.229Z,2.95
2022-12-16T12:34:53.479Z,3.30
2022-12-16T12:40:41.414Z,3.65
2022-12-16T12:46:31.389Z,3.30
2022-12-16T12:54:57.949Z,4.35
2022-12-16T13:00:38.486Z,4.07
2022-12-16T13:05:59.255Z,4.25
2022-12-16T13:11:35.301Z,4.35
2022-12-16T13:17:18.930Z,4.12
2022-12-16T13:22:52.038Z,4.47
2022-12-16T13:28:14.531Z,4.07
2022-12-16T13:36:15.621Z,3.50
2022-12-16T13:42:09.278Z,3.37
2022-12-16T13:47:51.196Z,3.80
2022-12-16T13:53:15.719Z,4.50
2022-12-16T13:58:56.316Z,4.22
2022-12-16T14:04:18.005Z,5.40
2022-12-16T14:09:45.875Z,5.72
2022-12-16T14:15:23.400Z,4.70
2022-12-16T14:20:53.554Z,5.80
2022-12-16T14:26:17.248Z,6.00
2022-12-16T14:31:50.680Z,6.68
2022-12-16T14:37:12.047Z,6.90
2022-12-16T14:42:43.110Z,9.25
2022-12-16T14:49:35.806Z,7.57
2022-12-16T14:55:01.077Z,13.68
2022-12-16T15:00:56.738Z,7.90
2022-12-16T15:06:16.736Z,6.25
2022-12-16T15:11:38.648Z,7.35
2022-12-16T15:17:00.388Z,16.90
2022-12-16T15:22:20.150Z,8.68
2022-12-16T15:27:44.133Z,12.93
2022-12-16T15:33:10.722Z,20.85
2022-12-16T15:39:13.730Z,10.50
2022-12-16T15:44:45.271Z,13.93
2022-12-16T15:50:06.715Z,12.70
2022-12-16T15:56:02.568Z,10.60
2022-12-16T16:01:26.369Z,10.85
2022-12-16T16:06:46.333Z,12.30
2022-12-16T16:12:05.654Z,11.88
2022-12-16T16:17:43.445Z,10.38
2022-12-16T16:23:02.807Z,9.55
2022-12-16T16:28:22.740Z,10.60
2022-12-16T16:33:42.216Z,10.80
2022-12-16T16:39:01.784Z,14.77
2022-12-16T16:44:21.218Z,12.65
2022-12-16T16:50:05.018Z,10.88
2022-12-16T16:55:25.896Z,14.73
2022-12-16T17:00:45.964Z,19.85
2022-12-16T17:06:05.630Z,15.13
2022-12-16T17:11:36.102Z,22.13
2022-12-16T17:16:55.530Z,20.12
2022-12-16T17:22:14.950Z,16.15
2022-12-16T17:27:37.818Z,15.75
2022-12-16T17:32:57.276Z,21.58
2022-12-16T17:38:16.715Z,16.55
2022-12-16T17:43:36.987Z,13.18
2022-12-16T17:48:56.362Z,12.43
2022-12-16T17:54:22.671Z,16.87
2022-12-16T17:59:44.834Z,17.33
2022-12-16T18:05:04.417Z,13.52
2022-12-16T18:10:25.115Z,16.40
2022-12-16T18:15:44.602Z,16.98
2022-12-16T18:21:03.797Z,17.48
2022-12-16T18:26:25.607Z,22.87
2022-12-16T18:31:45.099Z,19.87
2022-12-16T18:37:04.624Z,16.67
2022-12-16T18:42:24.234Z,15.20
2022-12-16T18:47:43.629Z,24.98
2022-12-16T18:53:03.102Z,10.52
2022-12-16T18:58:49.543Z,10.27
2022-12-16T19:04:11.741Z,8.80
2022-12-16T19:09:31.301Z,24.58
2022-12-16T19:14:50.627Z,11.32
2022-12-16T19:20:10.086Z,10.90
2022-12-16T19:25:29.555Z,9.48
2022-12-16T19:32:01.502Z,9.75
2022-12-16T19:37:21.433Z,10.02
2022-12-16T19:42:41.041Z,13.55
2022-12-16T19:48:00.896Z,11.75
2022-12-16T19:53:20.401Z,11.25
2022-12-16T19:58:40.296Z,15.88
2022-12-16T20:03:59.844Z,15.68
2022-12-16T20:09:20.289Z,15.02
2022-12-16T20:14:39.943Z,16.10
2022-12-16T20:19:59.449Z,12.70
2022-12-16T20:25:19.154Z,13.80
2022-12-16T20:30:38.676Z,16.35
2022-12-16T20:35:58.174Z,18.58
2022-12-16T20:41:19.541Z,12.02
2022-12-16T20:46:39.037Z,10.25
2022-12-16T20:51:58.524Z,13.02
2022-12-16T20:57:18.020Z,14.77
2022-12-16T21:02:37.640Z,15.07
2022-12-16T21:07:57.011Z,13.13
2022-12-16T21:14:57.320Z,12.60
2022-12-16T21:20:16.732Z,22.83
2022-12-16T21:25:36.308Z,13.45
2022-12-16T21:30:55.943Z,14.50
2022-12-16T21:36:15.938Z,14.90
2022-12-16T21:41:35.726Z,14.43
2022-12-16T21:46:55.336Z,13.13
2022-12-16T21:52:16.370Z,22.15
2022-12-16T21:57:35.778Z,22.98
2022-12-16T22:02:55.751Z,22.90
2022-12-16T22:08:15.732Z,16.98
2022-12-16T22:13:35.570Z,21.58
2022-12-16T22:18:56.135Z,23.08
2022-12-16T22:24:15.723Z,17.20
2022-12-16T22:29:35.240Z,19.73
2022-12-16T22:34:54.698Z,17.40
2022-12-16T22:40:15.024Z,11.68
2022-12-16T22:45:34.467Z,10.73
2022-12-16T22:50:54.062Z,11.00
2022-12-16T22:56:16.019Z,8.68
2022-12-16T23:01:35.582Z,8.35
2022-12-16T23:06:56.187Z,6.93
2022-12-16T23:12:15.782Z,5.53
2022-12-16T23:17:35.131Z,5.55
2022-12-16T23:22:54.895Z,15.25
2022-12-16T23:28:15.937Z,8.98
2022-12-16T23:33:36.136Z,6.60
2022-12-16T23:38:55.529Z,6.10
2022-12-16T23:44:16.135Z,5.43
2022-12-16T23:49:35.891Z,19.12
2022-12-16T23:54:55.563Z,7.25
